sensor_id;sensor_type;location;lat;lon;timestamp;temperature;humidity
18712;DHT22;9485;49.386;8.674;2022-10-31T00:04:52;15.20;79.50
18712;DHT22;9485;49.386;8.674;2022-10-31T00:10:13;15.20;79.60
18712;DHT22;9485;49.386;8.674;2022-10-31T00:15:35;15.20;79.70
18712;DHT22;9485;49.386;8.674;2022-10-31T00:21:00;15.20;79.80
18712;DHT22;9485;49.386;8.674;2022-10-31T00:26:21;15.20;79.90
18712;DHT22;9485;49.386;8.674;2022-10-31T00:31:43;15.20;79.80
18712;DHT22;9485;49.386;8.674;2022-10-31T00:37:04;15.10;80.00
18712;DHT22;9485;49.386;8.674;2022-10-31T00:42:24;15.10;79.90
18712;DHT22;9485;49.386;8.674;2022-10-31T00:47:46;15.10;80.00
18712;DHT22;9485;49.386;8.674;2022-10-31T00:53:07;15.00;79.90
18712;DHT22;9485;49.386;8.674;2022-10-31T00:58:28;14.90;80.00
18712;DHT22;9485;49.386;8.674;2022-10-31T01:03:50;14.90;80.20
18712;DHT22;9485;49.386;8.674;2022-10-31T01:09:11;14.80;80.30
18712;DHT22;9485;49.386;8.674;2022-10-31T01:14:31;14.80;80.50
18712;DHT22;9485;49.386;8.674;2022-10-31T01:19:53;14.80;80.60
18712;DHT22;9485;49.386;8.674;2022-10-31T01:25:14;14.80;80.70
18712;DHT22;9485;49.386;8.674;2022-10-31T01:30:34;14.80;80.60
18712;DHT22;9485;49.386;8.674;2022-10-31T01:35:56;14.80;80.60
18712;DHT22;9485;49.386;8.674;2022-10-31T01:41:20;14.80;80.70
18712;DHT22;9485;49.386;8.674;2022-10-31T01:46:45;14.70;80.70
18712;DHT22;9485;49.386;8.674;2022-10-31T01:52:16;14.70;80.70
18712;DHT22;9485;49.386;8.674;2022-10-31T01:57:44;14.60;80.90
18712;DHT22;9485;49.386;8.674;2022-10-31T02:03:10;14.60;80.90
18712;DHT22;9485;49.386;8.674;2022-10-31T02:08:34;14.60;81.00
18712;DHT22;9485;49.386;8.674;2022-10-31T02:13:56;14.60;81.20
18712;DHT22;9485;49.386;8.674;2022-10-31T02:19:25;14.50;81.10
18712;DHT22;9485;49.386;8.674;2022-10-31T02:25:13;14.60;81.40
18712;DHT22;9485;49.386;8.674;2022-10-31T02:31:00;14.60;81.60
18712;DHT22;9485;49.386;8.674;2022-10-31T02:36:40;14.50;81.30
18712;DHT22;9485;49.386;8.674;2022-10-31T02:42:09;14.50;81.20
18712;DHT22;9485;49.386;8.674;2022-10-31T02:47:38;14.50;81.30
18712;DHT22;9485;49.386;8.674;2022-10-31T02:52:58;14.50;81.30
18712;DHT22;9485;49.386;8.674;2022-10-31T02:58:21;14.40;81.20
18712;DHT22;9485;49.386;8.674;2022-10-31T03:03:58;14.40;81.40
18712;DHT22;9485;49.386;8.674;2022-10-31T03:09:33;14.40;81.70
18712;DHT22;9485;49.386;8.674;2022-10-31T03:15:10;14.40;81.60
18712;DHT22;9485;49.386;8.674;2022-10-31T03:20:39;14.40;81.80
18712;DHT22;9485;49.386;8.674;2022-10-31T03:26:04;14.40;81.80
18712;DHT22;9485;49.386;8.674;2022-10-31T03:31:30;14.40;81.80
18712;DHT22;9485;49.386;8.674;2022-10-31T03:36:57;14.40;82.60
18712;DHT22;9485;49.386;8.674;2022-10-31T03:42:23;14.40;81.80
18712;DHT22;9485;49.386;8.674;2022-10-31T03:47:45;14.40;81.80
18712;DHT22;9485;49.386;8.674;2022-10-31T03:53:11;14.30;81.60
18712;DHT22;9485;49.386;8.674;2022-10-31T03:58:39;14.20;81.60
18712;DHT22;9485;49.386;8.674;2022-10-31T04:04:06;14.30;81.70
18712;DHT22;9485;49.386;8.674;2022-10-31T04:09:32;14.20;81.60
18712;DHT22;9485;49.386;8.674;2022-10-31T04:14:55;14.10;81.60
18712;DHT22;9485;49.386;8.674;2022-10-31T04:20:16;14.10;81.70
18712;DHT22;9485;49.386;8.674;2022-10-31T04:25:38;14.00;81.90
18712;DHT22;9485;49.386;8.674;2022-10-31T04:30:59;14.00;82.20
18712;DHT22;9485;49.386;8.674;2022-10-31T04:36:21;14.00;82.20
18712;DHT22;9485;49.386;8.674;2022-10-31T04:41:43;14.00;82.80
18712;DHT22;9485;49.386;8.674;2022-10-31T04:47:07;13.90;82.00
18712;DHT22;9485;49.386;8.674;2022-10-31T04:52:29;13.90;82.10
18712;DHT22;9485;49.386;8.674;2022-10-31T04:57:51;14.00;82.20
18712;DHT22;9485;49.386;8.674;2022-10-31T05:03:12;13.90;82.30
18712;DHT22;9485;49.386;8.674;2022-10-31T05:08:33;13.80;82.90
18712;DHT22;9485;49.386;8.674;2022-10-31T05:13:58;13.80;82.20
18712;DHT22;9485;49.386;8.674;2022-10-31T05:19:39;13.80;82.20
18712;DHT22;9485;49.386;8.674;2022-10-31T05:25:20;13.70;82.10
18712;DHT22;9485;49.386;8.674;2022-10-31T05:30:43;13.70;82.10
18712;DHT22;9485;49.386;8.674;2022-10-31T05:36:08;13.70;82.30
18712;DHT22;9485;49.386;8.674;2022-10-31T05:41:34;13.60;82.30
18712;DHT22;9485;49.386;8.674;2022-10-31T05:47:02;13.60;82.30
18712;DHT22;9485;49.386;8.674;2022-10-31T05:52:41;13.60;82.40
18712;DHT22;9485;49.386;8.674;2022-10-31T05:58:13;13.50;82.30
18712;DHT22;9485;49.386;8.674;2022-10-31T06:03:43;13.40;82.00
18712;DHT22;9485;49.386;8.674;2022-10-31T06:09:08;13.40;82.10
18712;DHT22;9485;49.386;8.674;2022-10-31T06:14:32;13.30;82.30
18712;DHT22;9485;49.386;8.674;2022-10-31T06:19:54;13.30;82.70
18712;DHT22;9485;49.386;8.674;2022-10-31T06:25:18;13.30;82.80
18712;DHT22;9485;49.386;8.674;2022-10-31T06:30:42;13.30;82.90
18712;DHT22;9485;49.386;8.674;2022-10-31T06:36:05;13.30;83.00
18712;DHT22;9485;49.386;8.674;2022-10-31T06:41:26;13.40;83.30
18712;DHT22;9485;49.386;8.674;2022-10-31T06:46:47;13.40;83.30
18712;DHT22;9485;49.386;8.674;2022-10-31T06:52:28;13.40;83.50
18712;DHT22;9485;49.386;8.674;2022-10-31T06:57:50;13.50;83.90
18712;DHT22;9485;49.386;8.674;2022-10-31T07:03:12;13.60;84.00
18712;DHT22;9485;49.386;8.674;2022-10-31T07:08:36;13.80;84.40
18712;DHT22;9485;49.386;8.674;2022-10-31T07:13:56;13.90;84.60
18712;DHT22;9485;49.386;8.674;2022-10-31T07:19:17;14.10;84.70
18712;DHT22;9485;49.386;8.674;2022-10-31T07:24:39;14.20;84.80
18712;DHT22;9485;49.386;8.674;2022-10-31T07:30:38;14.30;85.00
18712;DHT22;9485;49.386;8.674;2022-10-31T07:35:59;14.50;85.10
18712;DHT22;9485;49.386;8.674;2022-10-31T07:41:24;14.70;85.10
18712;DHT22;9485;49.386;8.674;2022-10-31T07:46:47;14.90;85.40
18712;DHT22;9485;49.386;8.674;2022-10-31T07:52:27;15.10;85.40
18712;DHT22;9485;49.386;8.674;2022-10-31T07:58:09;15.30;85.30
18712;DHT22;9485;49.386;8.674;2022-10-31T08:03:32;15.50;85.50
18712;DHT22;9485;49.386;8.674;2022-10-31T08:09:12;15.80;85.40
18712;DHT22;9485;49.386;8.674;2022-10-31T08:14:34;16.10;85.30
18712;DHT22;9485;49.386;8.674;2022-10-31T08:19:55;16.50;85.10
18712;DHT22;9485;49.386;8.674;2022-10-31T08:25:25;16.80;84.50
18712;DHT22;9485;49.386;8.674;2022-10-31T08:30:47;17.20;83.90
18712;DHT22;9485;49.386;8.674;2022-10-31T08:36:27;17.40;83.30
18712;DHT22;9485;49.386;8.674;2022-10-31T08:41:58;17.70;83.20
18712;DHT22;9485;49.386;8.674;2022-10-31T08:47:20;17.90;82.90
18712;DHT22;9485;49.386;8.674;2022-10-31T08:52:41;18.30;83.00
18712;DHT22;9485;49.386;8.674;2022-10-31T08:58:02;18.80;83.40
18712;DHT22;9485;49.386;8.674;2022-10-31T09:03:33;19.50;82.80
18712;DHT22;9485;49.386;8.674;2022-10-31T09:08:54;20.20;81.80
18712;DHT22;9485;49.386;8.674;2022-10-31T09:14:17;20.90;81.10
18712;DHT22;9485;49.386;8.674;2022-10-31T09:20:13;21.50;79.70
18712;DHT22;9485;49.386;8.674;2022-10-31T09:25:34;22.10;79.10
18712;DHT22;9485;49.386;8.674;2022-10-31T09:31:15;22.50;77.60
18712;DHT22;9485;49.386;8.674;2022-10-31T09:36:59;23.00;76.70
18712;DHT22;9485;49.386;8.674;2022-10-31T09:42:39;23.40;75.50
18712;DHT22;9485;49.386;8.674;2022-10-31T09:48:31;23.80;73.30
18712;DHT22;9485;49.386;8.674;2022-10-31T09:54:14;24.10;72.00
18712;DHT22;9485;49.386;8.674;2022-10-31T09:59:40;24.20;71.30
18712;DHT22;9485;49.386;8.674;2022-10-31T10:05:05;24.20;71.20
18712;DHT22;9485;49.386;8.674;2022-10-31T10:10:44;24.30;71.20
18712;DHT22;9485;49.386;8.674;2022-10-31T10:16:40;24.50;68.60
18712;DHT22;9485;49.386;8.674;2022-10-31T10:22:15;24.50;68.30
18712;DHT22;9485;49.386;8.674;2022-10-31T10:27:54;24.50;68.60
18712;DHT22;9485;49.386;8.674;2022-10-31T10:33:24;24.40;67.00
18712;DHT22;9485;49.386;8.674;2022-10-31T10:38:55;24.20;67.90
18712;DHT22;9485;49.386;8.674;2022-10-31T10:44:22;23.70;68.10
18712;DHT22;9485;49.386;8.674;2022-10-31T10:49:58;23.40;68.60
18712;DHT22;9485;49.386;8.674;2022-10-31T10:55:29;23.10;69.00
18712;DHT22;9485;49.386;8.674;2022-10-31T11:00:58;22.80;68.70
18712;DHT22;9485;49.386;8.674;2022-10-31T11:06:20;22.50;69.70
18712;DHT22;9485;49.386;8.674;2022-10-31T11:11:45;22.40;70.20
18712;DHT22;9485;49.386;8.674;2022-10-31T11:17:19;22.30;70.60
18712;DHT22;9485;49.386;8.674;2022-10-31T11:22:46;22.10;70.20
18712;DHT22;9485;49.386;8.674;2022-10-31T11:28:09;22.10;71.20
18712;DHT22;9485;49.386;8.674;2022-10-31T11:33:32;22.10;71.10
18712;DHT22;9485;49.386;8.674;2022-10-31T11:38:55;22.10;71.40
18712;DHT22;9485;49.386;8.674;2022-10-31T11:44:18;22.00;71.80
18712;DHT22;9485;49.386;8.674;2022-10-31T11:49:43;22.00;72.10
18712;DHT22;9485;49.386;8.674;2022-10-31T11:55:16;22.10;71.90
18712;DHT22;9485;49.386;8.674;2022-10-31T12:00:50;22.10;72.00
18712;DHT22;9485;49.386;8.674;2022-10-31T12:06:21;22.10;72.10
18712;DHT22;9485;49.386;8.674;2022-10-31T12:11:53;22.10;72.20
18712;DHT22;9485;49.386;8.674;2022-10-31T12:17:30;22.10;72.40
18712;DHT22;9485;49.386;8.674;2022-10-31T12:23:02;22.10;72.20
18712;DHT22;9485;49.386;8.674;2022-10-31T12:28:57;22.00;71.70
18712;DHT22;9485;49.386;8.674;2022-10-31T12:35:05;21.90;71.20
18712;DHT22;9485;49.386;8.674;2022-10-31T12:40:57;21.80;71.40
18712;DHT22;9485;49.386;8.674;2022-10-31T12:46:46;21.70;71.80
18712;DHT22;9485;49.386;8.674;2022-10-31T12:52:32;21.60;72.20
18712;DHT22;9485;49.386;8.674;2022-10-31T12:58:07;21.60;72.50
18712;DHT22;9485;49.386;8.674;2022-10-31T13:03:33;21.60;72.80
18712;DHT22;9485;49.386;8.674;2022-10-31T13:09:06;21.60;72.80
18712;DHT22;9485;49.386;8.674;2022-10-31T13:14:34;21.50;73.00
18712;DHT22;9485;49.386;8.674;2022-10-31T13:20:15;21.60;73.50
18712;DHT22;9485;49.386;8.674;2022-10-31T13:25:44;21.70;73.30
18712;DHT22;9485;49.386;8.674;2022-10-31T13:31:11;21.70;73.40
18712;DHT22;9485;49.386;8.674;2022-10-31T13:36:36;21.80;73.20
18712;DHT22;9485;49.386;8.674;2022-10-31T13:42:03;21.70;73.10
18712;DHT22;9485;49.386;8.674;2022-10-31T13:47:33;21.60;73.00
18712;DHT22;9485;49.386;8.674;2022-10-31T13:53:10;21.60;73.50
18712;DHT22;9485;49.386;8.674;2022-10-31T13:58:32;21.60;73.30
18712;DHT22;9485;49.386;8.674;2022-10-31T14:04:01;21.70;73.90
18712;DHT22;9485;49.386;8.674;2022-10-31T14:09:28;21.90;73.60
18712;DHT22;9485;49.386;8.674;2022-10-31T14:14:54;22.00;73.60
18712;DHT22;9485;49.386;8.674;2022-10-31T14:20:34;22.10;73.20
18712;DHT22;9485;49.386;8.674;2022-10-31T14:26:07;22.20;72.60
18712;DHT22;9485;49.386;8.674;2022-10-31T14:31:41;22.20;72.60
18712;DHT22;9485;49.386;8.674;2022-10-31T14:37:31;22.20;72.50
18712;DHT22;9485;49.386;8.674;2022-10-31T14:43:14;22.10;72.20
18712;DHT22;9485;49.386;8.674;2022-10-31T14:49:01;22.00;72.10
18712;DHT22;9485;49.386;8.674;2022-10-31T14:54:35;21.70;71.80
18712;DHT22;9485;49.386;8.674;2022-10-31T15:00:02;21.50;72.00
18712;DHT22;9485;49.386;8.674;2022-10-31T15:05:26;21.30;72.20
18712;DHT22;9485;49.386;8.674;2022-10-31T15:10:49;21.10;72.40
18712;DHT22;9485;49.386;8.674;2022-10-31T15:16:11;20.90;72.60
18712;DHT22;9485;49.386;8.674;2022-10-31T15:21:35;20.70;73.00
18712;DHT22;9485;49.386;8.674;2022-10-31T15:27:02;20.50;73.60
18712;DHT22;9485;49.386;8.674;2022-10-31T15:32:25;20.40;74.20
18712;DHT22;9485;49.386;8.674;2022-10-31T15:37:46;20.30;74.50
18712;DHT22;9485;49.386;8.674;2022-10-31T15:43:14;20.20;74.60
18712;DHT22;9485;49.386;8.674;2022-10-31T15:48:37;20.10;74.90
18712;DHT22;9485;49.386;8.674;2022-10-31T15:54:00;20.00;75.10
18712;DHT22;9485;49.386;8.674;2022-10-31T15:59:26;19.90;75.10
18712;DHT22;9485;49.386;8.674;2022-10-31T16:04:50;19.90;75.60
18712;DHT22;9485;49.386;8.674;2022-10-31T16:10:23;19.80;75.70
18712;DHT22;9485;49.386;8.674;2022-10-31T16:15:51;19.70;76.20
18712;DHT22;9485;49.386;8.674;2022-10-31T16:21:15;19.70;76.30
18712;DHT22;9485;49.386;8.674;2022-10-31T16:26:48;19.50;76.10
18712;DHT22;9485;49.386;8.674;2022-10-31T16:37:38;19.40;76.60
18712;DHT22;9485;49.386;8.674;2022-10-31T16:43:00;19.20;76.70
18712;DHT22;9485;49.386;8.674;2022-10-31T16:48:22;19.10;76.90
18712;DHT22;9485;49.386;8.674;2022-10-31T16:53:44;19.00;77.10
18712;DHT22;9485;49.386;8.674;2022-10-31T16:59:06;19.10;77.50
18712;DHT22;9485;49.386;8.674;2022-10-31T17:04:31;19.10;77.80
18712;DHT22;9485;49.386;8.674;2022-10-31T17:09:53;19.00;77.80
18712;DHT22;9485;49.386;8.674;2022-10-31T17:15:16;19.10;78.00
18712;DHT22;9485;49.386;8.674;2022-10-31T17:20:39;19.00;78.00
18712;DHT22;9485;49.386;8.674;2022-10-31T17:26:01;19.00;77.90
18712;DHT22;9485;49.386;8.674;2022-10-31T17:31:23;19.00;78.00
18712;DHT22;9485;49.386;8.674;2022-10-31T17:36:49;18.90;78.10
18712;DHT22;9485;49.386;8.674;2022-10-31T17:42:12;18.80;78.30
18712;DHT22;9485;49.386;8.674;2022-10-31T17:47:33;18.80;78.30
18712;DHT22;9485;49.386;8.674;2022-10-31T17:52:54;18.70;78.40
18712;DHT22;9485;49.386;8.674;2022-10-31T17:58:18;18.50;78.50
18712;DHT22;9485;49.386;8.674;2022-10-31T18:03:39;18.50;78.80
18712;DHT22;9485;49.386;8.674;2022-10-31T18:09:02;18.40;79.20
18712;DHT22;9485;49.386;8.674;2022-10-31T18:14:25;18.40;79.20
18712;DHT22;9485;49.386;8.674;2022-10-31T18:19:46;18.30;79.30
18712;DHT22;9485;49.386;8.674;2022-10-31T18:25:07;18.30;79.30
18712;DHT22;9485;49.386;8.674;2022-10-31T18:30:29;18.30;79.50
18712;DHT22;9485;49.386;8.674;2022-10-31T18:35:50;18.20;79.60
18712;DHT22;9485;49.386;8.674;2022-10-31T18:41:11;18.20;79.50
18712;DHT22;9485;49.386;8.674;2022-10-31T18:46:35;18.10;79.70
18712;DHT22;9485;49.386;8.674;2022-10-31T18:51:56;18.10;80.00
18712;DHT22;9485;49.386;8.674;2022-10-31T18:57:17;18.00;79.90
18712;DHT22;9485;49.386;8.674;2022-10-31T19:02:39;17.90;80.10
18712;DHT22;9485;49.386;8.674;2022-10-31T19:07:59;17.90;80.20
18712;DHT22;9485;49.386;8.674;2022-10-31T19:13:20;17.90;80.40
18712;DHT22;9485;49.386;8.674;2022-10-31T19:18:43;17.80;80.40
18712;DHT22;9485;49.386;8.674;2022-10-31T19:24:04;17.80;80.70
18712;DHT22;9485;49.386;8.674;2022-10-31T19:29:25;17.70;80.60
18712;DHT22;9485;49.386;8.674;2022-10-31T19:34:47;17.70;80.70
18712;DHT22;9485;49.386;8.674;2022-10-31T19:40:10;17.60;80.90
18712;DHT22;9485;49.386;8.674;2022-10-31T19:45:31;17.50;81.00
18712;DHT22;9485;49.386;8.674;2022-10-31T19:50:58;17.40;81.00
18712;DHT22;9485;49.386;8.674;2022-10-31T19:56:21;17.40;81.40
18712;DHT22;9485;49.386;8.674;2022-10-31T20:01:43;17.40;81.40
18712;DHT22;9485;49.386;8.674;2022-10-31T20:07:05;17.30;81.30
18712;DHT22;9485;49.386;8.674;2022-10-31T20:12:26;17.20;81.30
18712;DHT22;9485;49.386;8.674;2022-10-31T20:17:46;17.10;81.20
18712;DHT22;9485;49.386;8.674;2022-10-31T20:23:08;17.00;81.50
18712;DHT22;9485;49.386;8.674;2022-10-31T20:28:30;17.00;81.90
18712;DHT22;9485;49.386;8.674;2022-10-31T20:33:52;16.90;82.00
18712;DHT22;9485;49.386;8.674;2022-10-31T20:39:15;16.90;82.20
18712;DHT22;9485;49.386;8.674;2022-10-31T20:44:35;16.90;82.30
18712;DHT22;9485;49.386;8.674;2022-10-31T20:49:56;16.80;82.20
18712;DHT22;9485;49.386;8.674;2022-10-31T20:55:18;16.80;82.30
18712;DHT22;9485;49.386;8.674;2022-10-31T21:00:39;16.80;82.50
18712;DHT22;9485;49.386;8.674;2022-10-31T21:06:01;16.70;82.20
18712;DHT22;9485;49.386;8.674;2022-10-31T21:11:25;16.70;82.40
18712;DHT22;9485;49.386;8.674;2022-10-31T21:16:47;16.70;82.60
18712;DHT22;9485;49.386;8.674;2022-10-31T21:22:07;16.60;82.60
18712;DHT22;9485;49.386;8.674;2022-10-31T21:27:30;16.60;82.70
18712;DHT22;9485;49.386;8.674;2022-10-31T21:32:51;16.60;82.90
18712;DHT22;9485;49.386;8.674;2022-10-31T21:38:11;16.50;82.80
18712;DHT22;9485;49.386;8.674;2022-10-31T21:43:35;16.50;82.80
18712;DHT22;9485;49.386;8.674;2022-10-31T21:48:58;16.50;83.00
18712;DHT22;9485;49.386;8.674;2022-10-31T21:54:21;16.40;82.80
18712;DHT22;9485;49.386;8.674;2022-10-31T21:59:49;16.30;83.00
18712;DHT22;9485;49.386;8.674;2022-10-31T22:05:10;16.30;83.50
18712;DHT22;9485;49.386;8.674;2022-10-31T22:10:30;16.30;83.80
18712;DHT22;9485;49.386;8.674;2022-10-31T22:15:54;16.30;84.00
18712;DHT22;9485;49.386;8.674;2022-10-31T22:21:19;16.30;84.20
18712;DHT22;9485;49.386;8.674;2022-10-31T22:26:41;16.30;84.20
18712;DHT22;9485;49.386;8.674;2022-10-31T22:32:04;16.30;84.30
18712;DHT22;9485;49.386;8.674;2022-10-31T22:37:25;16.40;84.50
18712;DHT22;9485;49.386;8.674;2022-10-31T22:42:45;16.40;84.40
18712;DHT22;9485;49.386;8.674;2022-10-31T22:48:07;16.40;84.30
18712;DHT22;9485;49.386;8.674;2022-10-31T22:53:27;16.40;84.40
18712;DHT22;9485;49.386;8.674;2022-10-31T22:58:48;16.40;84.30
18712;DHT22;9485;49.386;8.674;2022-10-31T23:04:11;16.40;84.30
18712;DHT22;9485;49.386;8.674;2022-10-31T23:09:32;16.40;84.40
18712;DHT22;9485;49.386;8.674;2022-10-31T23:14:54;16.40;84.40
18712;DHT22;9485;49.386;8.674;2022-10-31T23:20:16;16.40;84.40
18712;DHT22;9485;49.386;8.674;2022-10-31T23:25:36;16.40;84.70
18712;DHT22;9485;49.386;8.674;2022-10-31T23:31:15;16.40;84.70
18712;DHT22;9485;49.386;8.674;2022-10-31T23:36:37;16.40;84.70
18712;DHT22;9485;49.386;8.674;2022-10-31T23:41:58;16.40;84.90
18712;DHT22;9485;49.386;8.674;2022-10-31T23:47:19;16.50;84.90
18712;DHT22;9485;49.386;8.674;2022-10-31T23:52:42;16.50;85.00
18712;DHT22;9485;49.386;8.674;2022-10-31T23:58:02;16.40;85.00
